createdAt,value
2022-10-22T00:00:18.676Z,2.95
2022-10-22T00:02:46.038Z,3.20
2022-10-22T00:05:13.813Z,2.50
2022-10-22T00:07:41.648Z,3.00
2022-10-22T00:10:09.721Z,3.03
2022-10-22T00:12:37.580Z,3.35
2022-10-22T00:15:06.773Z,3.95
2022-10-22T00:17:34.104Z,3.80
2022-10-22T00:20:01.543Z,3.30
2022-10-22T00:22:28.917Z,3.13
2022-10-22T00:24:56.244Z,3.08
2022-10-22T00:27:23.542Z,3.50
2022-10-22T00:29:50.891Z,3.35
2022-10-22T00:32:18.266Z,3.42
2022-10-22T00:34:45.736Z,3.88
2022-10-22T00:37:13.161Z,3.58
2022-10-22T00:39:40.640Z,3.47
2022-10-22T00:42:10.598Z,3.38
2022-10-22T00:45:02.710Z,3.20
2022-10-22T00:47:54.649Z,3.60
2022-10-22T00:50:37.585Z,3.70
2022-10-22T00:53:10.445Z,3.50
2022-10-22T00:55:38.919Z,3.58
2022-10-22T00:58:06.556Z,3.75
2022-10-22T01:00:33.932Z,3.65
2022-10-22T01:03:01.789Z,3.80
2022-10-22T01:05:33.114Z,3.72
2022-10-22T01:08:00.561Z,4.05
2022-10-22T01:10:59.658Z,4.07
2022-10-22T01:13:49.264Z,3.90
2022-10-22T01:16:26.994Z,3.88
2022-10-22T01:19:28.453Z,3.65
2022-10-22T01:22:00.323Z,3.60
2022-10-22T01:24:56.024Z,3.58
2022-10-22T01:27:42.507Z,3.75
2022-10-22T01:30:15.247Z,3.47
2022-10-22T01:32:51.424Z,3.95
2022-10-22T01:35:24.458Z,3.72
2022-10-22T01:37:57.378Z,3.80
2022-10-22T01:40:26.310Z,3.55
2022-10-22T01:43:02.782Z,4.03
2022-10-22T01:45:52.242Z,3.90
2022-10-22T01:48:41.039Z,3.38
2022-10-22T01:51:26.852Z,3.40
2022-10-22T01:54:07.292Z,3.40
2022-10-22T01:57:06.803Z,3.53
2022-10-22T02:00:03.425Z,3.22
2022-10-22T02:05:25.045Z,2.90
2022-10-22T02:08:21.716Z,2.92
2022-10-22T02:10:50.937Z,2.75
2022-10-22T02:13:26.432Z,2.70
2022-10-22T02:15:55.893Z,3.45
2022-10-22T02:18:27.840Z,3.38
2022-10-22T02:20:56.036Z,3.08
2022-10-22T02:23:23.597Z,3.25
2022-10-22T02:25:57.650Z,3.60
2022-10-22T02:28:45.542Z,3.03
2022-10-22T02:31:19.028Z,3.20
2022-10-22T02:33:50.850Z,3.13
2022-10-22T02:36:18.723Z,3.22
2022-10-22T02:38:48.065Z,3.28
2022-10-22T02:41:17.467Z,3.25
2022-10-22T02:43:49.946Z,3.42
2022-10-22T02:46:17.426Z,3.40
2022-10-22T02:48:44.863Z,3.30
2022-10-22T02:51:12.303Z,3.30
2022-10-22T02:53:39.608Z,3.72
2022-10-22T02:56:07.215Z,3.72
2022-10-22T02:58:34.607Z,3.53
2022-10-22T03:01:02.148Z,3.20
2022-10-22T03:03:29.518Z,3.75
2022-10-22T03:05:56.876Z,3.72
2022-10-22T03:08:24.202Z,3.53
2022-10-22T03:10:51.688Z,3.17
2022-10-22T03:13:18.944Z,3.60
2022-10-22T03:15:49.519Z,3.47
2022-10-22T03:18:17.721Z,3.20
2022-10-22T03:20:45.050Z,3.55
2022-10-22T03:23:15.078Z,3.80
2022-10-22T03:25:44.265Z,3.78
2022-10-22T03:28:15.561Z,3.50
2022-10-22T03:30:42.971Z,3.30
2022-10-22T03:33:10.241Z,3.00
2022-10-22T03:35:44.605Z,3.40
2022-10-22T03:38:12.942Z,3.55
2022-10-22T03:40:42.583Z,3.70
2022-10-22T03:43:10.922Z,3.75
2022-10-22T03:48:10.486Z,3.65
2022-10-22T03:50:37.841Z,3.40
2022-10-22T03:53:05.260Z,3.42
2022-10-22T03:55:32.606Z,3.58
2022-10-22T03:57:59.911Z,3.88
2022-10-22T04:00:27.228Z,3.90
2022-10-22T04:02:56.143Z,3.53
2022-10-22T04:05:23.611Z,3.90
2022-10-22T04:07:50.936Z,3.90
2022-10-22T04:10:18.329Z,3.72
2022-10-22T04:12:48.289Z,3.65
2022-10-22T04:15:15.743Z,3.60
2022-10-22T04:17:43.629Z,3.42
2022-10-22T04:20:11.262Z,3.63
2022-10-22T04:22:38.663Z,3.58
2022-10-22T04:25:06.799Z,3.63
2022-10-22T04:27:35.368Z,4.00
2022-10-22T04:30:06.674Z,3.90
2022-10-22T04:32:34.145Z,3.60
2022-10-22T04:35:01.486Z,3.60
2022-10-22T04:37:28.848Z,4.00
2022-10-22T04:39:58.104Z,3.38
2022-10-22T04:42:25.895Z,3.05
2022-10-22T04:44:53.128Z,3.05
2022-10-22T04:47:20.482Z,3.08
2022-10-22T04:49:47.813Z,3.38
2022-10-22T04:52:15.174Z,3.33
2022-10-22T04:54:42.488Z,3.30
2022-10-22T04:57:09.841Z,3.33
2022-10-22T04:59:37.169Z,3.28
2022-10-22T05:02:04.606Z,3.45
2022-10-22T05:04:32.132Z,2.75
2022-10-22T05:06:59.501Z,3.08
2022-10-22T05:09:26.987Z,2.72
2022-10-22T05:11:54.701Z,3.20
2022-10-22T05:14:24.165Z,3.50
2022-10-22T05:16:52.522Z,3.72
2022-10-22T05:19:25.186Z,3.17
2022-10-22T05:21:55.499Z,3.05
2022-10-22T05:24:22.833Z,3.35
2022-10-22T05:26:51.661Z,2.72
2022-10-22T05:29:19.699Z,3.22
2022-10-22T05:31:47.195Z,3.15
2022-10-22T05:34:15.156Z,2.53
2022-10-22T05:36:42.700Z,2.70
2022-10-22T05:39:10.158Z,3.30
2022-10-22T05:41:37.776Z,2.80
2022-10-22T05:44:05.809Z,3.47
2022-10-22T05:46:36.689Z,2.90
2022-10-22T05:49:06.244Z,3.30
2022-10-22T05:51:36.377Z,3.13
2022-10-22T05:54:06.511Z,3.17
2022-10-22T05:56:35.106Z,3.08
2022-10-22T06:01:35.716Z,3.08
2022-10-22T06:04:07.085Z,2.85
2022-10-22T06:06:50.151Z,2.65
2022-10-22T06:09:22.536Z,2.92
2022-10-22T06:11:50.906Z,3.05
2022-10-22T06:14:19.198Z,2.83
2022-10-22T06:16:46.819Z,3.20
2022-10-22T06:19:16.241Z,3.17
2022-10-22T06:21:44.294Z,3.10
2022-10-22T06:24:11.963Z,2.90
2022-10-22T06:26:40.150Z,2.63
2022-10-22T06:29:08.023Z,3.10
2022-10-22T06:31:38.162Z,3.00
2022-10-22T06:34:11.842Z,2.92
2022-10-22T06:36:42.577Z,3.53
2022-10-22T06:39:15.567Z,2.97
2022-10-22T06:41:43.006Z,2.83
2022-10-22T06:44:17.622Z,2.63
2022-10-22T06:49:14.512Z,2.88
2022-10-22T06:51:42.257Z,3.35
2022-10-22T06:54:09.897Z,2.92
2022-10-22T06:56:37.478Z,2.72
2022-10-22T06:59:04.954Z,3.25
2022-10-22T07:01:34.173Z,3.08
2022-10-22T07:04:02.234Z,2.58
2022-10-22T07:06:29.978Z,3.20
2022-10-22T07:08:58.797Z,2.72
2022-10-22T07:11:35.359Z,2.47
2022-10-22T07:14:02.703Z,2.58
2022-10-22T07:16:32.486Z,3.05
2022-10-22T07:19:01.391Z,2.88
2022-10-22T07:21:29.626Z,2.58
2022-10-22T07:23:57.622Z,2.45
2022-10-22T07:26:25.616Z,2.83
2022-10-22T07:28:52.946Z,2.75
2022-10-22T07:31:20.400Z,2.53
2022-10-22T07:33:47.760Z,2.38
2022-10-22T07:36:19.374Z,2.65
2022-10-22T07:38:48.827Z,2.28
2022-10-22T07:41:16.779Z,1.90
2022-10-22T07:43:44.663Z,2.42
2022-10-22T07:46:12.461Z,2.42
2022-10-22T07:48:39.916Z,2.58
2022-10-22T07:51:07.629Z,1.92
2022-10-22T07:53:35.089Z,2.10
2022-10-22T07:56:02.906Z,1.98
2022-10-22T07:58:31.980Z,2.10
2022-10-22T08:01:00.947Z,2.10
2022-10-22T08:03:29.350Z,2.00
2022-10-22T08:05:57.017Z,2.50
2022-10-22T08:08:28.317Z,2.10
2022-10-22T08:11:00.561Z,2.00
2022-10-22T08:13:30.618Z,2.00
2022-10-22T08:16:02.010Z,2.10
2022-10-22T08:18:29.989Z,2.28
2022-10-22T08:20:57.648Z,2.30
2022-10-22T08:23:27.716Z,2.30
2022-10-22T08:25:57.379Z,1.80
2022-10-22T08:28:25.105Z,1.83
2022-10-22T08:30:52.452Z,2.20
2022-10-22T08:33:19.842Z,1.90
2022-10-22T08:35:51.189Z,1.98
2022-10-22T08:38:19.288Z,1.98
2022-10-22T08:40:59.621Z,1.80
2022-10-22T08:43:38.641Z,2.08
2022-10-22T08:46:25.093Z,2.20
2022-10-22T08:48:55.821Z,1.63
2022-10-22T08:51:34.464Z,1.63
2022-10-22T08:54:17.628Z,2.20
2022-10-22T08:56:50.594Z,2.75
2022-10-22T08:59:25.874Z,1.92
2022-10-22T09:01:54.540Z,2.40
2022-10-22T09:04:41.427Z,1.52
2022-10-22T09:07:09.450Z,2.00
2022-10-22T09:09:46.681Z,2.42
2022-10-22T09:12:20.135Z,2.08
2022-10-22T09:14:47.991Z,2.38
2022-10-22T09:17:38.296Z,2.38
2022-10-22T09:20:26.753Z,2.35
2022-10-22T09:23:29.608Z,1.83
2022-10-22T09:25:57.821Z,2.20
2022-10-22T09:28:25.217Z,2.58
2022-10-22T09:30:52.597Z,1.95
2022-10-22T09:33:25.298Z,2.17
2022-10-22T09:35:58.802Z,2.08
2022-10-22T09:38:44.564Z,2.08
2022-10-22T09:41:12.789Z,2.15
2022-10-22T09:43:40.101Z,2.13
2022-10-22T09:46:19.268Z,3.17
2022-10-22T09:48:58.594Z,1.90
2022-10-22T09:51:51.985Z,1.73
2022-10-22T09:54:25.094Z,1.98
2022-10-22T09:56:55.943Z,1.83
2022-10-22T09:59:32.720Z,1.55
2022-10-22T10:02:13.738Z,2.10
2022-10-22T10:04:53.716Z,2.10
2022-10-22T10:07:24.244Z,2.45
2022-10-22T10:09:53.649Z,1.60
2022-10-22T10:12:52.607Z,1.73
2022-10-22T10:15:28.462Z,1.80
2022-10-22T10:18:06.711Z,1.73
2022-10-22T10:20:41.023Z,1.85
2022-10-22T10:23:27.994Z,2.20
2022-10-22T10:26:02.090Z,1.90
2022-10-22T10:28:51.238Z,1.52
2022-10-22T10:31:30.599Z,2.00
2022-10-22T10:34:04.083Z,1.90
2022-10-22T10:37:09.213Z,1.70
2022-10-22T10:40:11.608Z,1.70
2022-10-22T10:42:49.008Z,1.83
2022-10-22T10:45:44.806Z,1.60
2022-10-22T10:48:12.106Z,1.80
2022-10-22T10:50:51.382Z,1.60
2022-10-22T10:53:45.006Z,1.75
2022-10-22T10:56:44.830Z,1.40
2022-10-22T10:59:23.820Z,1.60
2022-10-22T11:02:12.793Z,1.88
2022-10-22T11:04:46.200Z,1.70
2022-10-22T11:07:30.408Z,1.92
2022-10-22T11:10:17.725Z,1.50
2022-10-22T11:12:51.397Z,1.67
2022-10-22T11:15:33.235Z,1.60
2022-10-22T11:18:11.370Z,1.55
2022-10-22T11:20:49.576Z,1.67
2022-10-22T11:23:39.602Z,1.77
2022-10-22T11:26:15.303Z,1.60
2022-10-22T11:28:47.451Z,1.15
2022-10-22T11:31:17.045Z,1.80
2022-10-22T11:34:33.343Z,1.58
2022-10-22T11:37:04.242Z,1.67
2022-10-22T11:39:51.151Z,1.52
2022-10-22T11:42:34.391Z,1.70
2022-10-22T11:45:13.709Z,1.65
2022-10-22T11:48:19.332Z,1.40
2022-10-22T11:50:54.247Z,1.77
2022-10-22T11:53:30.917Z,1.70
2022-10-22T11:56:04.535Z,1.92
2022-10-22T11:58:33.165Z,1.60
2022-10-22T12:01:09.197Z,1.60
2022-10-22T12:03:48.354Z,1.70
2022-10-22T12:06:19.732Z,1.60
2022-10-22T12:08:50.270Z,1.90
2022-10-22T12:11:40.649Z,1.38
2022-10-22T12:14:19.847Z,2.17
2022-10-22T12:16:57.190Z,2.30
2022-10-22T12:19:36.886Z,2.08
2022-10-22T12:22:18.137Z,1.58
2022-10-22T12:24:52.403Z,2.17
2022-10-22T12:27:23.259Z,1.60
2022-10-22T12:29:59.072Z,1.90
2022-10-22T12:32:38.732Z,1.92
2022-10-22T12:35:08.964Z,1.90
2022-10-22T12:37:37.829Z,2.22
2022-10-22T12:40:21.899Z,2.00
2022-10-22T12:43:00.306Z,1.40
2022-10-22T12:45:30.364Z,2.08
2022-10-22T12:48:00.512Z,1.45
2022-10-22T12:50:38.324Z,1.90
2022-10-22T12:53:20.117Z,1.90
2022-10-22T12:55:51.352Z,2.10
2022-10-22T12:58:26.640Z,1.73
2022-10-22T13:01:02.062Z,2.08
2022-10-22T13:03:35.472Z,1.70
2022-10-22T13:06:20.868Z,1.90
2022-10-22T13:09:00.167Z,2.17
2022-10-22T13:11:38.596Z,2.10
2022-10-22T13:14:29.530Z,2.35
2022-10-22T13:17:40.353Z,2.85
2022-10-22T13:20:22.960Z,2.08
2022-10-22T13:23:02.768Z,3.28
2022-10-22T13:25:32.639Z,2.60
2022-10-22T13:28:21.412Z,2.83
2022-10-22T13:30:58.870Z,2.22
2022-10-22T13:33:41.180Z,2.55
2022-10-22T13:36:13.911Z,2.35
2022-10-22T13:38:42.541Z,2.30
2022-10-22T13:41:27.989Z,2.30
2022-10-22T13:43:55.772Z,2.17
2022-10-22T13:46:24.257Z,2.47
2022-10-22T13:48:54.131Z,2.90
2022-10-22T13:51:37.450Z,2.45
2022-10-22T13:54:10.587Z,2.08
2022-10-22T13:56:37.892Z,2.35
2022-10-22T13:59:05.156Z,2.30
2022-10-22T14:01:32.528Z,1.90
2022-10-22T14:04:02.027Z,2.47
2022-10-22T14:06:34.212Z,2.05
2022-10-22T14:09:11.262Z,2.22
2022-10-22T14:11:38.628Z,2.05
2022-10-22T14:14:08.891Z,2.35
2022-10-22T14:16:37.636Z,1.92
2022-10-22T14:19:07.625Z,1.77
2022-10-22T14:21:37.747Z,2.00
2022-10-22T14:24:08.214Z,2.00
2022-10-22T14:26:38.204Z,2.05
2022-10-22T14:29:10.134Z,1.70
2022-10-22T14:31:43.456Z,2.90
2022-10-22T14:34:13.900Z,1.90
2022-10-22T14:36:43.722Z,2.10
2022-10-22T14:39:12.100Z,1.75
2022-10-22T14:41:40.886Z,1.90
2022-10-22T14:44:14.443Z,1.63
2022-10-22T14:46:44.050Z,2.00
2022-10-22T14:49:11.537Z,1.90
2022-10-22T14:51:38.845Z,2.35
2022-10-22T14:54:06.247Z,2.00
2022-10-22T14:56:33.610Z,1.65
2022-10-22T14:59:00.947Z,2.05
2022-10-22T15:01:28.449Z,1.98
2022-10-22T15:03:55.802Z,2.40
2022-10-22T15:06:23.121Z,2.15
2022-10-22T15:08:50.930Z,2.13
2022-10-22T15:11:18.385Z,1.70
2022-10-22T15:13:45.764Z,1.73
2022-10-22T15:16:14.788Z,2.55
2022-10-22T15:18:42.465Z,2.08
2022-10-22T15:21:16.858Z,1.52
2022-10-22T15:26:13.572Z,1.80
2022-10-22T15:28:42.200Z,1.80
2022-10-22T15:31:14.118Z,1.73
2022-10-22T15:33:42.612Z,1.92
2022-10-22T15:36:16.095Z,2.47
2022-10-22T15:38:43.431Z,1.88
2022-10-22T15:41:12.412Z,1.77
2022-10-22T15:43:39.735Z,1.98
2022-10-22T15:46:16.259Z,2.30
2022-10-22T15:48:43.841Z,2.08
2022-10-22T15:51:17.005Z,1.95
2022-10-22T15:53:50.419Z,2.28
2022-10-22T15:56:17.924Z,2.00
2022-10-22T15:58:45.251Z,1.80
2022-10-22T16:01:14.714Z,2.00
2022-10-22T16:03:42.379Z,1.90
2022-10-22T16:06:10.035Z,2.05
2022-10-22T16:08:38.309Z,2.22
2022-10-22T16:11:05.863Z,1.92
2022-10-22T16:13:33.201Z,2.13
2022-10-22T16:16:05.979Z,1.85
2022-10-22T16:18:33.569Z,2.10
2022-10-22T16:21:00.945Z,2.40
2022-10-22T16:23:28.303Z,2.65
2022-10-22T16:25:55.642Z,2.00
2022-10-22T16:28:22.940Z,2.67
2022-10-22T16:30:51.200Z,2.60
2022-10-22T16:33:19.054Z,2.22
2022-10-22T16:35:48.508Z,2.58
2022-10-22T16:38:16.205Z,2.58
2022-10-22T16:40:43.508Z,2.50
2022-10-22T16:46:03.970Z,2.47
2022-10-22T16:48:32.638Z,2.15
2022-10-22T16:51:05.594Z,2.25
2022-10-22T16:56:08.164Z,2.80
2022-10-22T16:58:35.536Z,2.60
2022-10-22T17:01:07.935Z,2.20
2022-10-22T17:03:36.050Z,2.83
2022-10-22T17:06:04.546Z,2.60
2022-10-22T17:08:34.559Z,2.15
2022-10-22T17:11:09.634Z,2.78
2022-10-22T17:13:38.264Z,2.20
2022-10-22T17:16:08.059Z,3.10
2022-10-22T17:18:37.223Z,2.83
2022-10-22T17:21:05.762Z,2.72
2022-10-22T17:23:33.169Z,2.65
2022-10-22T17:26:03.120Z,2.42
2022-10-22T17:28:30.703Z,2.45
2022-10-22T17:31:27.393Z,2.60
2022-10-22T17:33:56.432Z,3.03
2022-10-22T17:36:24.841Z,2.40
2022-10-22T17:38:54.703Z,3.08
2022-10-22T17:41:24.620Z,2.90
2022-10-22T17:43:52.007Z,3.17
2022-10-22T17:46:25.113Z,2.97
2022-10-22T17:49:18.858Z,3.08
2022-10-22T17:51:46.583Z,3.17
2022-10-22T17:54:14.533Z,3.25
2022-10-22T17:56:41.972Z,3.08
2022-10-22T17:59:13.163Z,3.38
2022-10-22T18:01:45.264Z,3.03
2022-10-22T18:04:18.842Z,2.75
2022-10-22T18:06:47.628Z,3.60
2022-10-22T18:09:18.523Z,3.03
2022-10-22T18:11:48.483Z,3.10
2022-10-22T18:14:20.055Z,2.70
2022-10-22T18:16:48.049Z,2.70
2022-10-22T18:19:18.742Z,2.65
2022-10-22T18:21:46.578Z,3.13
2022-10-22T18:24:15.443Z,3.30
2022-10-22T18:26:43.448Z,3.53
2022-10-22T18:29:14.886Z,3.40
2022-10-22T18:31:42.362Z,3.70
2022-10-22T18:34:09.982Z,3.38
2022-10-22T18:36:37.533Z,3.10
2022-10-22T18:39:06.199Z,3.05
2022-10-22T18:41:34.546Z,3.70
2022-10-22T18:44:04.483Z,3.53
2022-10-22T18:46:38.386Z,3.97
2022-10-22T18:49:09.226Z,3.83
2022-10-22T18:51:36.739Z,2.88
2022-10-22T18:54:05.862Z,3.55
2022-10-22T18:59:19.886Z,4.10
2022-10-22T19:01:47.982Z,3.58
2022-10-22T19:04:15.518Z,3.60
2022-10-22T19:06:45.567Z,4.15
2022-10-22T19:09:15.329Z,4.00
2022-10-22T19:11:44.930Z,4.40
2022-10-22T19:14:14.010Z,4.25
2022-10-22T19:16:41.585Z,4.28
2022-10-22T19:19:08.942Z,4.55
2022-10-22T19:21:37.979Z,4.05
2022-10-22T19:24:05.776Z,5.28
2022-10-22T19:26:33.787Z,4.50
2022-10-22T19:29:03.012Z,4.97
2022-10-22T19:31:31.280Z,4.63
2022-10-22T19:34:02.637Z,5.20
2022-10-22T19:36:32.533Z,5.78
2022-10-22T19:39:00.397Z,5.85
2022-10-22T19:41:29.474Z,5.80
2022-10-22T19:43:57.885Z,5.97
2022-10-22T19:46:26.924Z,9.73
2022-10-22T19:48:56.979Z,12.25
2022-10-22T19:51:29.924Z,18.17
2022-10-22T19:53:59.539Z,18.80
2022-10-22T19:56:27.703Z,11.45
2022-10-22T19:58:55.508Z,12.02
2022-10-22T20:01:23.757Z,10.25
2022-10-22T20:03:51.173Z,8.57
2022-10-22T20:06:19.054Z,7.22
2022-10-22T20:08:46.822Z,6.80
2022-10-22T20:11:20.302Z,6.43
2022-10-22T20:13:51.419Z,5.68
2022-10-22T20:16:24.276Z,6.60
2022-10-22T20:18:52.414Z,6.57
2022-10-22T20:21:20.759Z,7.10
2022-10-22T20:23:52.475Z,6.85
2022-10-22T20:26:21.122Z,6.82
2022-10-22T20:28:48.732Z,5.82
2022-10-22T20:31:19.859Z,6.40
2022-10-22T20:33:48.561Z,6.57
2022-10-22T20:36:21.617Z,6.32
2022-10-22T20:38:49.428Z,6.63
2022-10-22T20:41:23.469Z,6.75
2022-10-22T20:43:52.119Z,6.65
2022-10-22T20:46:23.066Z,6.95
2022-10-22T20:48:53.462Z,6.57
2022-10-22T20:51:21.045Z,6.57
2022-10-22T20:53:48.462Z,6.72
2022-10-22T20:56:17.779Z,6.95
2022-10-22T20:58:48.946Z,7.88
2022-10-22T21:01:24.189Z,7.15
2022-10-22T21:03:52.515Z,7.05
2022-10-22T21:06:22.974Z,7.68
2022-10-22T21:08:51.323Z,6.63
2022-10-22T21:11:19.510Z,6.63
2022-10-22T21:13:47.191Z,7.03
2022-10-22T21:16:16.958Z,7.45
2022-10-22T21:18:45.904Z,7.60
2022-10-22T21:21:13.424Z,7.03
2022-10-22T21:23:40.823Z,8.07
2022-10-22T21:26:08.751Z,8.32
2022-10-22T21:28:37.377Z,8.18
2022-10-22T21:31:06.862Z,8.25
2022-10-22T21:33:39.067Z,9.05
2022-10-22T21:36:08.980Z,8.48
2022-10-22T21:38:37.318Z,8.27
2022-10-22T21:41:10.237Z,8.25
2022-10-22T21:43:38.913Z,7.72
2022-10-22T21:46:13.070Z,7.93
2022-10-22T21:48:40.700Z,7.90
2022-10-22T21:51:12.961Z,7.55
2022-10-22T21:53:40.990Z,8.25
2022-10-22T21:56:17.934Z,9.00
2022-10-22T21:58:45.413Z,7.55
2022-10-22T22:01:14.403Z,8.02
2022-10-22T22:03:47.836Z,7.63
2022-10-22T22:06:20.525Z,8.15
2022-10-22T22:08:50.020Z,7.95
2022-10-22T22:11:21.887Z,8.68
2022-10-22T22:13:49.595Z,8.50
2022-10-22T22:16:22.435Z,8.20
2022-10-22T22:18:52.921Z,8.73
2022-10-22T22:21:21.882Z,8.07
2022-10-22T22:23:50.663Z,7.55
2022-10-22T22:26:25.297Z,8.05
2022-10-22T22:28:56.512Z,8.10
2022-10-22T22:31:30.150Z,8.23
2022-10-22T22:34:07.073Z,8.48
2022-10-22T22:36:36.663Z,7.85
2022-10-22T22:39:06.271Z,8.35
2022-10-22T22:41:33.861Z,8.40
2022-10-22T22:44:01.555Z,8.43
2022-10-22T22:46:29.015Z,9.63
2022-10-22T22:48:56.394Z,8.98
2022-10-22T22:51:24.231Z,9.02
2022-10-22T22:53:51.952Z,8.68
2022-10-22T22:56:20.754Z,8.65
2022-10-22T22:58:49.007Z,9.32
2022-10-22T23:01:22.330Z,9.75
2022-10-22T23:03:54.846Z,9.23
2022-10-22T23:06:23.342Z,8.73
2022-10-22T23:08:52.220Z,8.07
2022-10-22T23:11:20.513Z,8.52
2022-10-22T23:13:51.416Z,8.13
2022-10-22T23:16:21.488Z,8.48
2022-10-22T23:18:49.777Z,8.88
2022-10-22T23:21:19.622Z,8.77
2022-10-22T23:23:49.672Z,8.13
2022-10-22T23:26:20.098Z,8.57
2022-10-22T23:28:47.661Z,8.88
2022-10-22T23:31:17.068Z,9.00
2022-10-22T23:33:45.407Z,8.60
2022-10-22T23:36:13.443Z,8.15
2022-10-22T23:38:41.581Z,8.63
2022-10-22T23:41:09.771Z,7.97
2022-10-22T23:43:37.961Z,8.27
2022-10-22T23:46:07.051Z,8.13
2022-10-22T23:48:35.075Z,8.60
2022-10-22T23:51:14.267Z,7.97
2022-10-22T23:53:43.092Z,8.52
2022-10-22T23:56:16.314Z,8.60
2022-10-22T23:58:44.359Z,8.00
